createdAt,value
2022-10-13T00:02:17.848Z,66.08
2022-10-13T00:05:20.737Z,66.02
2022-10-13T00:08:24.998Z,65.93
2022-10-13T00:11:29.609Z,66.02
2022-10-13T00:14:32.873Z,66.01
2022-10-13T00:17:36.586Z,65.95
2022-10-13T00:20:44.763Z,65.91
2022-10-13T00:23:47.012Z,65.95
2022-10-13T00:26:54.777Z,66.00
2022-10-13T00:29:57.077Z,66.02
2022-10-13T00:32:59.266Z,65.94
2022-10-13T00:36:01.585Z,66.08
2022-10-13T00:39:04.267Z,66.10
2022-10-13T00:42:08.207Z,66.11
2022-10-13T00:45:24.234Z,66.17
2022-10-13T00:48:30.859Z,66.23
2022-10-13T00:51:38.295Z,66.17
2022-10-13T00:54:41.791Z,66.19
2022-10-13T00:57:48.009Z,66.19
2022-10-13T01:00:52.635Z,66.22
2022-10-13T01:03:54.834Z,66.31
2022-10-13T01:06:56.924Z,66.37
2022-10-13T01:10:01.264Z,66.34
2022-10-13T01:13:23.880Z,66.34
2022-10-13T01:16:44.369Z,66.31
2022-10-13T01:20:18.146Z,66.32
2022-10-13T01:23:29.475Z,66.42
2022-10-13T01:26:38.232Z,66.36
2022-10-13T01:30:02.670Z,66.44
2022-10-13T01:33:08.104Z,66.38
2022-10-13T01:36:13.454Z,66.41
2022-10-13T01:39:40.443Z,66.43
2022-10-13T01:43:02.176Z,66.44
2022-10-13T01:46:16.824Z,66.34
2022-10-13T01:49:22.451Z,66.39
2022-10-13T01:52:28.651Z,66.36
2022-10-13T01:55:32.047Z,66.28
2022-10-13T01:58:36.946Z,66.35
2022-10-13T02:01:54.766Z,66.28
2022-10-13T02:05:10.466Z,66.24
2022-10-13T02:08:38.202Z,66.31
2022-10-13T02:11:47.134Z,66.36
2022-10-13T02:14:50.987Z,66.32
2022-10-13T02:17:53.868Z,66.44
2022-10-13T02:20:56.960Z,66.47
2022-10-13T02:23:59.586Z,66.41
2022-10-13T02:27:03.399Z,66.39
2022-10-13T02:30:06.567Z,66.42
2022-10-13T02:33:09.864Z,66.37
2022-10-13T02:36:12.958Z,66.38
2022-10-13T02:39:16.110Z,66.42
2022-10-13T02:42:19.161Z,66.42
2022-10-13T02:45:21.880Z,66.47
2022-10-13T02:48:25.063Z,66.42
2022-10-13T02:51:27.676Z,66.40
2022-10-13T02:54:30.697Z,66.39
2022-10-13T02:57:33.265Z,66.42
2022-10-13T03:00:35.349Z,66.49
2022-10-13T03:03:38.827Z,66.44
2022-10-13T03:06:40.712Z,66.44
2022-10-13T03:09:43.231Z,66.45
2022-10-13T03:12:45.209Z,66.45
2022-10-13T03:15:47.881Z,66.42
2022-10-13T03:18:49.744Z,66.49
2022-10-13T03:21:52.292Z,66.48
2022-10-13T03:24:55.644Z,66.47
2022-10-13T03:27:58.150Z,66.48
2022-10-13T03:31:11.883Z,66.52
2022-10-13T03:34:17.562Z,66.50
2022-10-13T03:37:20.027Z,66.47
2022-10-13T03:40:22.853Z,66.42
2022-10-13T03:43:25.535Z,66.42
2022-10-13T03:46:32.592Z,66.39
2022-10-13T03:49:34.657Z,66.44
2022-10-13T03:52:37.714Z,66.40
2022-10-13T03:55:39.740Z,66.42
2022-10-13T03:58:42.925Z,66.40
2022-10-13T04:01:45.083Z,66.39
2022-10-13T04:04:47.633Z,66.34
2022-10-13T04:07:49.928Z,66.35
2022-10-13T04:11:06.591Z,66.28
2022-10-13T04:14:09.175Z,66.33
2022-10-13T04:17:11.861Z,66.35
2022-10-13T04:20:14.123Z,66.34
2022-10-13T04:23:16.585Z,66.34
2022-10-13T04:26:25.201Z,66.34
2022-10-13T04:29:27.550Z,66.28
2022-10-13T04:32:29.931Z,66.30
2022-10-13T04:35:32.995Z,66.36
2022-10-13T04:38:35.303Z,66.29
2022-10-13T04:41:37.484Z,66.31
2022-10-13T04:44:40.226Z,66.32
2022-10-13T04:47:43.725Z,66.30
2022-10-13T04:50:45.710Z,66.30
2022-10-13T04:53:48.427Z,66.22
2022-10-13T04:56:52.746Z,66.26
2022-10-13T04:59:55.908Z,66.33
2022-10-13T05:02:58.068Z,66.26
2022-10-13T05:06:01.388Z,66.29
2022-10-13T05:09:04.279Z,66.25
2022-10-13T05:12:07.794Z,66.37
2022-10-13T05:15:10.229Z,66.36
2022-10-13T05:18:12.959Z,66.43
2022-10-13T05:21:20.307Z,66.47
2022-10-13T05:24:31.224Z,66.49
2022-10-13T05:27:33.521Z,66.54
2022-10-13T05:30:39.532Z,66.60
2022-10-13T05:33:42.812Z,66.65
2022-10-13T05:36:45.575Z,66.64
2022-10-13T05:39:48.943Z,66.72
2022-10-13T05:42:51.628Z,66.83
2022-10-13T05:45:54.720Z,66.73
2022-10-13T05:48:57.509Z,66.56
2022-10-13T05:52:04.337Z,66.69
2022-10-13T05:55:12.188Z,66.58
2022-10-13T05:58:14.971Z,66.52
2022-10-13T06:01:22.020Z,66.53
2022-10-13T06:04:35.802Z,66.53
2022-10-13T06:07:38.519Z,66.52
2022-10-13T06:10:43.010Z,66.54
2022-10-13T06:13:45.386Z,66.57
2022-10-13T06:16:47.399Z,66.55
2022-10-13T06:19:50.028Z,66.58
2022-10-13T06:22:52.126Z,66.61
2022-10-13T06:25:54.681Z,66.60
2022-10-13T06:28:59.746Z,66.63
2022-10-13T06:32:03.629Z,66.66
2022-10-13T06:35:06.428Z,66.60
2022-10-13T06:38:09.500Z,66.64
2022-10-13T06:41:14.515Z,66.62
2022-10-13T06:44:17.261Z,66.62
2022-10-13T06:47:19.336Z,66.62
2022-10-13T06:50:22.657Z,66.54
2022-10-13T06:53:24.680Z,66.61
2022-10-13T06:56:30.290Z,66.63
2022-10-13T06:59:34.148Z,66.63
2022-10-13T07:02:36.510Z,66.64
2022-10-13T07:05:38.514Z,66.62
2022-10-13T07:08:41.158Z,66.64
2022-10-13T07:11:47.161Z,66.61
2022-10-13T07:14:49.874Z,66.57
2022-10-13T07:17:54.233Z,66.59
2022-10-13T07:20:58.757Z,66.60
2022-10-13T07:24:02.832Z,66.63
2022-10-13T07:27:07.896Z,66.59
2022-10-13T07:30:11.433Z,66.75
2022-10-13T07:33:14.220Z,66.67
2022-10-13T07:36:16.163Z,66.90
2022-10-13T07:39:18.416Z,66.80
2022-10-13T07:42:20.479Z,66.86
2022-10-13T07:45:23.205Z,66.80
2022-10-13T07:48:26.150Z,66.83
2022-10-13T07:51:30.827Z,66.87
2022-10-13T07:54:33.659Z,66.96
2022-10-13T07:57:36.129Z,66.85
2022-10-13T08:00:38.024Z,66.80
2022-10-13T08:03:44.210Z,66.82
2022-10-13T08:06:51.662Z,66.80
2022-10-13T08:09:54.197Z,66.74
2022-10-13T08:12:56.411Z,66.74
2022-10-13T08:16:01.571Z,66.69
2022-10-13T08:19:03.862Z,66.77
2022-10-13T08:22:09.647Z,66.81
2022-10-13T08:25:12.991Z,66.96
2022-10-13T08:28:21.885Z,66.82
2022-10-13T08:31:24.341Z,66.77
2022-10-13T08:34:28.488Z,66.80
2022-10-13T08:37:30.361Z,66.66
2022-10-13T08:40:33.448Z,66.59
2022-10-13T08:43:49.077Z,66.69
2022-10-13T08:47:13.208Z,66.67
2022-10-13T08:50:20.104Z,66.66
2022-10-13T08:53:29.060Z,66.58
2022-10-13T08:56:34.986Z,66.60
2022-10-13T08:59:37.421Z,66.54
2022-10-13T09:02:41.648Z,66.51
2022-10-13T09:05:56.013Z,66.59
2022-10-13T09:08:59.788Z,66.53
2022-10-13T09:12:04.008Z,66.59
2022-10-13T09:15:10.300Z,66.56
2022-10-13T09:18:14.483Z,66.51
2022-10-13T09:21:21.842Z,66.51
2022-10-13T09:24:26.588Z,66.37
2022-10-13T09:27:28.910Z,66.41
2022-10-13T09:30:34.202Z,66.36
2022-10-13T09:33:37.698Z,66.37
2022-10-13T09:36:54.786Z,66.33
2022-10-13T09:40:19.700Z,66.27
2022-10-13T09:43:48.223Z,66.34
2022-10-13T09:46:59.580Z,66.24
2022-10-13T09:50:23.509Z,66.24
2022-10-13T09:53:34.285Z,66.28
2022-10-13T09:56:42.690Z,66.33
2022-10-13T09:59:53.415Z,66.41
2022-10-13T10:03:23.698Z,66.33
2022-10-13T10:06:27.996Z,66.31
2022-10-13T10:09:41.838Z,66.29
2022-10-13T10:12:45.708Z,66.14
2022-10-13T10:16:19.910Z,66.54
2022-10-13T10:19:43.854Z,66.57
2022-10-13T10:23:01.430Z,66.54
2022-10-13T10:26:22.100Z,66.46
2022-10-13T10:29:58.603Z,66.45
2022-10-13T10:33:13.294Z,66.43
2022-10-13T10:36:26.328Z,66.52
2022-10-13T10:39:37.117Z,66.50
2022-10-13T10:43:18.256Z,67.03
2022-10-13T10:46:30.946Z,67.01
2022-10-13T10:49:40.400Z,66.89
2022-10-13T10:52:48.948Z,66.95
2022-10-13T10:55:55.815Z,67.18
2022-10-13T10:59:27.251Z,67.43
2022-10-13T11:02:54.711Z,67.82
2022-10-13T11:06:05.201Z,68.02
2022-10-13T11:09:11.675Z,68.13
2022-10-13T11:12:20.260Z,67.67
2022-10-13T11:15:31.328Z,68.51
2022-10-13T11:18:55.323Z,68.65
2022-10-13T11:22:11.879Z,68.03
2022-10-13T11:25:40.412Z,67.60
2022-10-13T11:28:43.487Z,67.37
2022-10-13T11:31:53.714Z,67.23
2022-10-13T11:35:10.666Z,67.12
2022-10-13T11:38:32.448Z,67.33
2022-10-13T11:41:55.132Z,67.51
2022-10-13T11:45:01.745Z,67.27
2022-10-13T11:48:25.707Z,67.11
2022-10-13T11:51:49.589Z,67.01
2022-10-13T11:55:17.430Z,66.88
2022-10-13T11:58:22.161Z,67.04
2022-10-13T12:01:24.919Z,66.94
2022-10-13T12:04:28.978Z,66.77
2022-10-13T12:07:39.916Z,66.58
2022-10-13T12:10:42.429Z,66.36
2022-10-13T12:13:47.268Z,66.20
2022-10-13T12:20:18.334Z,66.15
2022-10-13T12:23:20.803Z,66.04
2022-10-13T12:26:25.700Z,65.85
2022-10-13T12:29:33.470Z,65.76
2022-10-13T12:32:50.598Z,65.70
2022-10-13T12:35:52.888Z,65.68
2022-10-13T12:39:02.650Z,65.62
2022-10-13T12:42:08.079Z,65.50
2022-10-13T12:45:26.627Z,65.50
2022-10-13T12:48:38.579Z,65.56
2022-10-13T12:51:43.753Z,65.60
2022-10-13T12:54:57.420Z,65.55
2022-10-13T12:57:59.809Z,65.51
2022-10-13T13:01:14.531Z,65.48
2022-10-13T13:04:23.192Z,65.49
2022-10-13T13:07:35.488Z,65.48
2022-10-13T13:10:37.675Z,65.46
2022-10-13T13:13:39.623Z,65.42
2022-10-13T13:16:42.121Z,65.39
2022-10-13T13:19:50.050Z,65.48
2022-10-13T13:22:53.657Z,65.49
2022-10-13T13:26:18.410Z,65.48
2022-10-13T13:29:20.761Z,65.40
2022-10-13T13:32:25.081Z,65.51
2022-10-13T13:35:28.431Z,65.48
2022-10-13T13:38:31.508Z,65.46
2022-10-13T13:41:34.155Z,65.44
2022-10-13T13:44:36.277Z,65.47
2022-10-13T13:47:38.892Z,65.44
2022-10-13T13:50:41.209Z,65.42
2022-10-13T13:53:43.597Z,65.40
2022-10-13T13:56:47.757Z,65.43
2022-10-13T13:59:51.444Z,65.44
2022-10-13T14:02:54.032Z,65.47
2022-10-13T14:05:56.545Z,65.52
2022-10-13T14:08:59.317Z,65.58
2022-10-13T14:12:02.360Z,65.55
2022-10-13T14:15:05.971Z,65.54
2022-10-13T14:18:08.284Z,65.61
2022-10-13T14:21:11.087Z,65.63
2022-10-13T14:24:13.857Z,65.63
2022-10-13T14:27:16.144Z,65.66
2022-10-13T14:30:18.842Z,65.64
2022-10-13T14:33:20.891Z,65.69
2022-10-13T14:36:23.508Z,65.70
2022-10-13T14:39:25.633Z,65.71
2022-10-13T14:42:28.115Z,65.74
2022-10-13T14:45:31.031Z,65.74
2022-10-13T14:48:34.931Z,65.76
2022-10-13T14:51:37.607Z,65.81
2022-10-13T14:54:44.539Z,65.86
2022-10-13T14:57:48.451Z,65.79
2022-10-13T15:00:53.801Z,65.84
2022-10-13T15:03:56.114Z,65.88
2022-10-13T15:07:00.301Z,65.86
2022-10-13T15:10:06.653Z,64.66
2022-10-13T15:13:09.551Z,65.80
2022-10-13T15:16:20.322Z,66.43
2022-10-13T15:19:22.995Z,67.69
2022-10-13T15:22:27.007Z,67.69
2022-10-13T15:25:29.463Z,68.83
2022-10-13T15:28:37.732Z,68.43
2022-10-13T15:31:42.992Z,67.73
2022-10-13T15:34:45.739Z,67.30
2022-10-13T15:37:48.187Z,67.03
2022-10-13T15:40:50.775Z,66.78
2022-10-13T15:43:53.240Z,66.67
2022-10-13T15:47:07.965Z,66.58
2022-10-13T15:50:11.079Z,66.54
2022-10-13T15:53:13.971Z,66.48
2022-10-13T15:56:17.602Z,66.49
2022-10-13T15:59:19.794Z,66.42
2022-10-13T16:02:24.401Z,66.43
2022-10-13T16:05:27.082Z,66.36
2022-10-13T16:08:31.059Z,66.35
2022-10-13T16:11:35.113Z,66.29
2022-10-13T16:14:37.915Z,66.26
2022-10-13T16:17:41.138Z,66.25
2022-10-13T16:20:45.538Z,66.22
2022-10-13T16:23:48.470Z,66.29
2022-10-13T16:26:50.817Z,66.34
2022-10-13T16:29:54.160Z,66.33
2022-10-13T16:32:58.304Z,66.37
2022-10-13T16:36:10.647Z,66.39
2022-10-13T16:39:14.056Z,66.42
2022-10-13T16:42:16.725Z,66.41
2022-10-13T16:45:35.462Z,66.53
2022-10-13T16:48:44.319Z,66.44
2022-10-13T16:51:46.696Z,66.45
2022-10-13T16:54:48.800Z,66.47
2022-10-13T16:57:51.812Z,66.54
2022-10-13T17:00:53.773Z,66.59
2022-10-13T17:03:57.776Z,66.61
2022-10-13T17:07:00.245Z,66.69
2022-10-13T17:10:03.776Z,66.70
2022-10-13T17:13:06.591Z,66.68
2022-10-13T17:16:09.070Z,66.76
2022-10-13T17:19:13.987Z,66.78
2022-10-13T17:22:16.452Z,66.81
2022-10-13T17:25:18.595Z,66.85
2022-10-13T17:28:21.083Z,66.83
2022-10-13T17:31:23.862Z,66.85
2022-10-13T17:34:26.412Z,66.92
2022-10-13T17:37:28.559Z,66.93
2022-10-13T17:40:34.860Z,66.82
2022-10-13T17:43:39.168Z,66.86
2022-10-13T17:46:41.973Z,66.85
2022-10-13T17:49:44.644Z,66.85
2022-10-13T17:52:49.907Z,66.86
2022-10-13T17:55:54.025Z,66.96
2022-10-13T17:59:00.228Z,66.92
2022-10-13T18:02:02.451Z,66.98
2022-10-13T18:05:05.430Z,67.04
2022-10-13T18:08:07.966Z,67.10
2022-10-13T18:11:15.227Z,67.08
2022-10-13T18:14:18.404Z,67.12
2022-10-13T18:17:20.965Z,67.15
2022-10-13T18:20:23.683Z,67.20
2022-10-13T18:23:30.650Z,67.21
2022-10-13T18:26:38.138Z,67.22
2022-10-13T18:29:42.650Z,67.26
2022-10-13T18:32:46.248Z,67.34
2022-10-13T18:35:50.147Z,67.30
2022-10-13T18:38:53.958Z,67.31
2022-10-13T18:41:58.095Z,67.32
2022-10-13T18:45:09.702Z,67.36
2022-10-13T18:48:12.776Z,67.40
2022-10-13T18:51:17.376Z,67.43
2022-10-13T18:54:20.078Z,67.42
2022-10-13T18:57:22.738Z,67.51
2022-10-13T19:00:25.679Z,67.52
2022-10-13T19:03:28.618Z,67.58
2022-10-13T19:06:33.036Z,67.59
2022-10-13T19:09:35.532Z,67.61
2022-10-13T19:12:38.091Z,67.63
2022-10-13T19:15:40.592Z,67.64
2022-10-13T19:18:43.726Z,67.66
2022-10-13T19:21:45.964Z,67.67
2022-10-13T19:24:48.660Z,67.66
2022-10-13T19:27:55.236Z,67.67
2022-10-13T19:30:58.704Z,67.71
2022-10-13T19:34:02.115Z,67.69
2022-10-13T19:37:05.557Z,67.71
2022-10-13T19:40:08.691Z,67.79
2022-10-13T19:43:11.307Z,67.74
2022-10-13T19:46:13.754Z,67.66
2022-10-13T19:49:19.366Z,67.74
2022-10-13T19:52:24.077Z,67.76
2022-10-13T19:55:27.041Z,67.69
2022-10-13T19:58:30.471Z,67.60
2022-10-13T20:01:40.783Z,67.61
2022-10-13T20:04:48.099Z,67.56
2022-10-13T20:07:50.526Z,67.58
2022-10-13T20:10:52.447Z,67.61
2022-10-13T20:13:54.643Z,67.56
2022-10-13T20:16:58.971Z,67.56
2022-10-13T20:20:01.197Z,67.61
2022-10-13T20:23:03.556Z,67.67
2022-10-13T20:26:12.797Z,67.74
2022-10-13T20:29:15.850Z,67.80
2022-10-13T20:32:18.578Z,67.81
2022-10-13T20:35:21.586Z,67.84
2022-10-13T20:38:24.237Z,67.90
2022-10-13T20:41:31.327Z,67.93
2022-10-13T20:44:34.008Z,67.97
2022-10-13T20:47:36.163Z,67.97
2022-10-13T20:50:39.961Z,67.91
2022-10-13T20:53:44.399Z,67.98
2022-10-13T20:56:48.407Z,67.99
2022-10-13T20:59:51.128Z,68.06
2022-10-13T21:02:55.329Z,68.08
2022-10-13T21:06:03.349Z,68.05
2022-10-13T21:09:07.938Z,68.10
2022-10-13T21:12:11.077Z,68.03
2022-10-13T21:15:13.669Z,67.96
2022-10-13T21:18:16.501Z,68.02
2022-10-13T21:21:22.104Z,68.01
2022-10-13T21:24:26.358Z,68.08
2022-10-13T21:27:29.155Z,68.05
2022-10-13T21:30:32.079Z,68.04
2022-10-13T21:33:35.828Z,68.04
2022-10-13T21:36:42.675Z,68.02
2022-10-13T21:39:47.898Z,68.05
2022-10-13T21:42:50.133Z,68.09
2022-10-13T21:45:52.695Z,68.08
2022-10-13T21:48:57.324Z,68.04
2022-10-13T21:51:59.955Z,68.13
2022-10-13T21:55:05.647Z,68.10
2022-10-13T21:58:07.959Z,68.15
2022-10-13T22:01:10.721Z,68.08
2022-10-13T22:04:14.527Z,68.11
2022-10-13T22:07:16.755Z,68.23
2022-10-13T22:10:19.828Z,68.22
2022-10-13T22:13:22.036Z,68.19
2022-10-13T22:16:31.093Z,68.09
2022-10-13T22:19:33.250Z,68.08
2022-10-13T22:22:37.397Z,68.07
2022-10-13T22:25:46.493Z,68.10
2022-10-13T22:28:51.592Z,68.14
2022-10-13T22:31:58.274Z,68.13
2022-10-13T22:35:00.754Z,68.18
2022-10-13T22:38:03.588Z,68.11
2022-10-13T22:41:07.592Z,68.14
2022-10-13T22:44:09.961Z,68.18
2022-10-13T22:47:12.390Z,68.10
2022-10-13T22:50:14.400Z,68.16
2022-10-13T22:53:16.887Z,68.11
2022-10-13T22:56:22.145Z,68.09
2022-10-13T22:59:26.885Z,68.13
2022-10-13T23:02:28.906Z,68.13
2022-10-13T23:05:32.230Z,68.10
2022-10-13T23:08:34.838Z,68.21
2022-10-13T23:11:37.347Z,68.14
2022-10-13T23:14:40.805Z,68.17
2022-10-13T23:17:43.275Z,68.22
2022-10-13T23:20:45.552Z,68.19
2022-10-13T23:24:00.099Z,68.25
2022-10-13T23:27:02.361Z,68.28
2022-10-13T23:30:06.444Z,68.33
2022-10-13T23:33:08.680Z,68.34
2022-10-13T23:36:19.004Z,68.31
2022-10-13T23:39:24.673Z,68.27
2022-10-13T23:42:27.129Z,68.30
2022-10-13T23:45:29.285Z,68.34
2022-10-13T23:48:31.486Z,68.31
2022-10-13T23:51:34.009Z,68.34
2022-10-13T23:54:36.470Z,68.34
2022-10-13T23:57:39.712Z,68.43
